Time;durP1;ratioP1;P1;durP2;ratioP2;P2;SDS_P1;SDS_P2;PMS_P1;PMS_P2;Temp;Humidity;BMP_temperature;BMP_pressure;BME280_temperature;BME280_humidity;BME280_pressure;Samples;Min_cycle;Max_cycle;Signal;HPM_P1;HPM_P2
2022/06/26 00:00:24;;;;;;;22.08;19.48;;;;;;;26.45;63.19;100931.34;5030109;28;97366;-70
2022/06/26 00:02:52;;;;;;;22.45;20.08;;;;;;;26.35;63.23;100942.22;5023559;28;99273;-71
2022/06/26 00:05:18;;;;;;;25.73;21.10;;;;;;;26.18;64.04;100943.00;5027810;27;98919;-70
2022/06/26 00:07:45;;;;;;;23.85;21.33;;;;;;;26.17;63.76;100949.44;5025970;28;97054;-70
2022/06/26 00:10:11;;;;;;;22.92;20.45;;;;;;;26.18;63.70;100954.69;5029531;28;96809;-71
2022/06/26 00:12:38;;;;;;;23.50;20.35;;;;;;;26.17;63.70;100953.00;5028317;28;102220;-71
2022/06/26 00:15:05;;;;;;;22.60;20.30;;;;;;;26.11;63.98;100958.16;5028427;27;99313;-71
2022/06/26 00:17:32;;;;;;;24.08;20.30;;;;;;;26.37;63.41;100959.19;5030596;27;96947;-70
2022/06/26 00:19:59;;;;;;;23.95;20.02;;;;;;;26.17;63.62;100960.25;5025539;27;96923;-71
2022/06/26 00:22:26;;;;;;;23.40;20.38;;;;;;;26.26;63.54;100970.22;5024049;27;98868;-71
2022/06/26 00:24:53;;;;;;;22.88;19.85;;;;;;;26.16;63.11;100970.25;5029408;27;98801;-71
2022/06/26 00:27:19;;;;;;;24.92;20.48;;;;;;;26.41;62.12;100966.00;5023281;28;97017;-70
2022/06/26 00:29:46;;;;;;;23.80;20.25;;;;;;;26.46;61.90;100966.41;5028161;28;96740;-70
2022/06/26 00:32:12;;;;;;;24.88;21.40;;;;;;;26.29;62.63;100967.22;5028267;27;98969;-70
2022/06/26 00:34:39;;;;;;;24.10;21.25;;;;;;;26.33;62.49;100967.75;5029584;27;97529;-70
2022/06/26 00:37:06;;;;;;;23.40;20.20;;;;;;;26.39;62.22;100969.84;5026464;27;96869;-71
2022/06/26 00:39:33;;;;;;;21.70;19.50;;;;;;;26.29;62.58;100971.78;5024077;28;97604;-71
2022/06/26 00:42:00;;;;;;;22.65;18.98;;;;;;;26.53;61.75;100964.78;5029181;27;99031;-70
2022/06/26 00:44:27;;;;;;;21.70;19.48;;;;;;;26.47;61.55;100968.09;5022160;27;101236;-71
2022/06/26 00:46:53;;;;;;;24.42;18.95;;;;;;;26.46;61.66;100963.69;5029685;27;96797;-70
2022/06/26 00:49:21;;;;;;;21.00;18.83;;;;;;;26.51;61.35;100961.41;5024298;27;99500;-69
2022/06/26 00:51:49;;;;;;;22.35;18.33;;;;;;;26.61;60.78;100966.75;5023572;27;97645;-70
2022/06/26 00:54:17;;;;;;;19.95;17.85;;;;;;;26.76;60.15;100961.66;5030510;27;99244;-70
2022/06/26 00:56:44;;;;;;;21.48;18.45;;;;;;;26.83;59.95;100965.47;5024917;27;97183;-71
2022/06/26 00:59:11;;;;;;;20.77;18.67;;;;;;;26.68;60.44;100958.84;5030236;27;98232;-71
2022/06/26 01:01:38;;;;;;;21.00;18.85;;;;;;;26.52;60.83;100975.78;5030543;27;99743;-72
2022/06/26 01:04:05;;;;;;;22.85;19.90;;;;;;;26.07;62.90;100978.38;5028533;27;100904;-71
2022/06/26 01:06:32;;;;;;;24.10;20.15;;;;;;;26.08;62.73;100980.97;5027962;27;96908;-71
2022/06/26 01:08:59;;;;;;;21.42;19.23;;;;;;;25.82;63.55;100979.91;5032449;27;97726;-71
2022/06/26 01:11:28;;;;;;;26.60;20.45;;;;;;;25.95;63.34;100985.00;5033024;27;97753;-70
2022/06/26 01:13:57;;;;;;;24.10;20.17;;;;;;;26.08;62.80;100980.97;5023810;27;98755;-70
2022/06/26 01:16:25;;;;;;;21.17;18.95;;;;;;;26.13;62.92;100970.53;5026343;28;96795;-72
2022/06/26 01:18:53;;;;;;;21.33;18.90;;;;;;;26.27;61.97;100984.59;5031241;27;97404;-70
2022/06/26 01:21:21;;;;;;;21.67;19.48;;;;;;;26.24;62.29;100988.50;5030966;27;99464;-70
2022/06/26 01:23:50;;;;;;;19.98;17.60;;;;;;;26.30;62.23;100979.75;5029897;27;98914;-71
2022/06/26 01:26:18;;;;;;;23.27;19.42;;;;;;;26.40;61.33;100979.69;5031696;28;96810;-70
2022/06/26 01:28:44;;;;;;;23.17;19.60;;;;;;;26.42;61.13;100978.56;5029755;28;97494;-70
2022/06/26 01:31:11;;;;;;;21.67;18.95;;;;;;;26.22;61.65;100981.47;5028138;27;101962;-70
2022/06/26 01:33:37;;;;;;;23.45;19.15;;;;;;;26.24;61.32;100988.50;5023532;27;98951;-70
2022/06/26 01:36:04;;;;;;;23.25;18.30;;;;;;;26.03;62.34;100988.69;5032711;27;97438;-70
2022/06/26 01:38:31;;;;;;;20.70;18.50;;;;;;;25.95;62.45;101001.25;5031259;27;96839;-72
2022/06/26 01:40:59;;;;;;;20.70;18.67;;;;;;;25.95;62.74;100993.97;5030207;27;101707;-70
2022/06/26 01:43:28;;;;;;;21.23;19.02;;;;;;;25.94;62.87;100994.97;5029408;27;99248;-70
2022/06/26 01:45:56;;;;;;;22.45;18.27;;;;;;;25.92;62.69;101002.41;5032778;27;96875;-71
2022/06/26 01:48:25;;;;;;;19.88;16.38;;;;;;;26.09;61.89;100992.66;5032134;27;96842;-72
2022/06/26 01:50:53;;;;;;;19.40;17.55;;;;;;;26.19;61.26;100998.84;5026138;27;98913;-71
2022/06/26 01:53:20;;;;;;;20.35;18.15;;;;;;;26.07;61.07;101002.75;5031994;27;101549;-71
2022/06/26 01:55:47;;;;;;;21.63;18.52;;;;;;;26.15;61.05;101000.16;5032671;27;96803;-70
2022/06/26 01:58:14;;;;;;;21.73;19.42;;;;;;;25.93;61.96;100998.66;5033048;28;97042;-70
2022/06/26 02:00:45;;;;;;;21.00;18.30;;;;;;;25.92;61.62;100997.00;5026201;27;98332;-68
2022/06/26 02:03:13;;;;;;;21.25;17.20;;;;;;;26.10;61.43;101011.47;5020301;27;98693;-71
2022/06/26 02:05:40;;;;;;;19.25;17.15;;;;;;;26.20;61.02;101004.13;5025455;27;97428;-70
2022/06/26 02:08:06;;;;;;;19.33;17.13;;;;;;;26.21;61.31;101002.28;5032597;27;96935;-71
2022/06/26 02:13:39;;;;;;;20.45;18.35;;;;;;;26.19;60.89;101004.28;5027276;27;97118;-71
2022/06/26 02:16:09;;;;;;;20.55;17.58;;;;;;;26.14;61.08;101003.88;5028463;27;98675;-71
2022/06/26 02:18:36;;;;;;;19.60;17.60;;;;;;;26.14;61.09;100998.47;5020489;27;97536;-71
2022/06/26 02:21:05;;;;;;;20.02;18.13;;;;;;;26.10;61.24;101006.03;5030416;27;99047;-71
2022/06/26 02:23:32;;;;;;;19.85;17.77;;;;;;;26.00;61.54;101010.63;5029752;27;98820;-70
2022/06/26 02:25:58;;;;;;;19.80;17.55;;;;;;;26.16;60.98;101000.03;5030797;27;96899;-70
2022/06/26 02:28:26;;;;;;;20.67;17.38;;;;;;;26.26;60.69;101004.56;5032669;27;97130;-71
2022/06/26 02:30:53;;;;;;;20.20;17.83;;;;;;;26.15;60.92;101005.59;5029259;27;99246;-71
2022/06/26 02:33:22;;;;;;;19.98;17.85;;;;;;;25.91;61.62;101000.69;5026966;27;99359;-71
2022/06/26 02:35:49;;;;;;;21.17;17.58;;;;;;;25.66;62.62;101004.03;5030874;27;96786;-72
2022/06/26 02:38:16;;;;;;;20.45;18.40;;;;;;;25.73;62.17;101003.28;5023387;27;97523;-71
2022/06/26 02:40:43;;;;;;;20.30;18.17;;;;;;;25.65;62.90;101011.28;5027627;27;99119;-70
2022/06/26 02:43:10;;;;;;;23.55;18.45;;;;;;;25.68;62.79;101005.56;5029523;27;99219;-70
2022/06/26 02:45:38;;;;;;;19.30;17.33;;;;;;;25.67;62.70;101009.28;5029643;27;96848;-70
2022/06/26 02:48:05;;;;;;;19.33;17.45;;;;;;;25.71;62.67;101010.72;5031189;28;97005;-70
2022/06/26 02:50:31;;;;;;;18.98;17.17;;;;;;;25.76;62.61;101013.84;5030677;28;98879;-71
2022/06/26 02:52:58;;;;;;;19.77;17.75;;;;;;;25.89;61.90;101015.38;5027893;27;98830;-71
2022/06/26 02:55:24;;;;;;;20.25;18.10;;;;;;;25.83;62.22;101018.66;5029951;27;97300;-71
2022/06/26 02:57:50;;;;;;;21.45;19.17;;;;;;;25.87;61.94;101017.34;5030033;27;97146;-71
2022/06/26 03:00:17;;;;;;;20.45;18.55;;;;;;;25.69;62.83;101015.41;5025528;27;99005;-70
2022/06/26 03:02:45;;;;;;;22.45;20.00;;;;;;;25.69;62.23;101017.25;5030458;27;98865;-70
2022/06/26 03:05:12;;;;;;;24.10;20.02;;;;;;;25.69;62.60;101018.13;5031755;27;99400;-70
2022/06/26 03:07:38;;;;;;;22.15;19.85;;;;;;;25.61;62.79;101023.38;5027936;27;96867;-70
2022/06/26 03:10:06;;;;;;;22.05;19.10;;;;;;;25.45;63.33;101024.94;5028263;27;99477;-71
2022/06/26 03:12:32;;;;;;;21.77;19.67;;;;;;;25.50;63.66;101025.38;5027902;27;98876;-70
2022/06/26 03:14:59;;;;;;;21.85;19.67;;;;;;;25.57;63.25;101027.41;5028429;27;97230;-70
2022/06/26 03:17:26;;;;;;;22.33;19.73;;;;;;;25.64;62.85;101027.66;5029802;27;98356;-70
2022/06/26 03:19:53;;;;;;;24.70;20.80;;;;;;;25.66;62.83;101028.38;5024887;27;98881;-71
2022/06/26 03:22:20;;;;;;;22.00;19.67;;;;;;;25.57;63.22;101019.28;5031774;27;98892;-71
2022/06/26 03:24:46;;;;;;;22.35;20.00;;;;;;;25.58;63.30;101025.53;5027370;27;98712;-70
2022/06/26 03:27:13;;;;;;;23.60;21.08;;;;;;;25.88;62.19;101025.34;5030979;28;97459;-70
2022/06/26 03:29:39;;;;;;;22.27;20.20;;;;;;;25.81;62.66;101032.34;5021637;27;98829;-70
2022/06/26 03:32:07;;;;;;;22.65;20.48;;;;;;;25.79;62.38;101029.78;5030092;27;99168;-70
2022/06/26 03:34:34;;;;;;;21.95;19.67;;;;;;;25.99;61.93;101032.44;5023414;28;96995;-71
2022/06/26 03:37:01;;;;;;;21.20;18.95;;;;;;;26.06;61.32;101038.97;5029505;27;97999;-71
2022/06/26 03:39:28;;;;;;;22.20;19.45;;;;;;;26.23;61.07;101043.63;5020602;28;97604;-71
2022/06/26 03:42:01;;;;;;;19.50;17.55;;;;;;;26.42;60.25;101038.16;5031046;27;101908;-71
2022/06/26 03:44:28;;;;;;;22.17;19.15;;;;;;;26.49;60.19;101038.41;5029395;28;98870;-71
2022/06/26 03:46:55;;;;;;;23.27;20.40;;;;;;;26.41;60.39;101049.13;5027442;27;96797;-71
2022/06/26 03:49:22;;;;;;;24.38;21.98;;;;;;;26.52;60.25;101054.34;5023978;27;97717;-70
2022/06/26 03:51:48;;;;;;;25.20;22.80;;;;;;;26.76;59.54;101048.41;5032253;28;98912;-70
2022/06/26 03:54:16;;;;;;;26.27;23.50;;;;;;;26.93;58.52;101053.88;5027196;27;97238;-72
2022/06/26 03:56:43;;;;;;;24.85;22.20;;;;;;;27.05;57.84;101045.53;5029618;27;96847;-71
2022/06/26 03:59:09;;;;;;;24.33;21.73;;;;;;;27.15;57.03;101049.91;5025960;27;98955;-71
2022/06/26 04:01:36;;;;;;;22.05;19.77;;;;;;;27.37;56.68;101056.72;5031350;27;97848;-71
2022/06/26 04:04:02;;;;;;;21.92;19.60;;;;;;;27.49;56.25;101060.06;5022663;27;97283;-70
2022/06/26 04:06:29;;;;;;;22.05;19.75;;;;;;;27.57;55.99;101061.00;5031367;27;97324;-70
2022/06/26 04:08:55;;;;;;;20.00;17.77;;;;;;;27.84;54.88;101057.31;5029211;27;98843;-71
2022/06/26 04:11:23;;;;;;;20.35;18.23;;;;;;;27.69;55.38;101053.47;5030225;27;98770;-71
2022/06/26 04:13:50;;;;;;;18.33;16.58;;;;;;;27.95;54.48;101059.78;5026375;27;97243;-71
2022/06/26 04:16:16;;;;;;;17.55;15.85;;;;;;;27.89;54.38;101063.13;5029437;27;98407;-70
2022/06/26 04:18:42;;;;;;;20.23;15.95;;;;;;;27.95;53.81;101059.78;5029065;27;99012;-73
2022/06/26 04:21:09;;;;;;;17.65;15.88;;;;;;;27.97;53.61;101063.19;5025866;27;99254;-71
2022/06/26 04:23:35;;;;;;;16.67;14.85;;;;;;;28.29;52.92;101059.84;5024010;27;98819;-71
2022/06/26 04:26:02;;;;;;;16.52;14.93;;;;;;;28.17;52.77;101058.41;5031987;27;97333;-71
2022/06/26 04:28:30;;;;;;;17.95;14.57;;;;;;;28.33;52.69;101053.09;5025219;27;98144;-71
2022/06/26 04:30:56;;;;;;;16.40;14.70;;;;;;;28.49;52.15;101050.44;5030569;27;98990;-71
2022/06/26 04:33:22;;;;;;;18.05;16.15;;;;;;;28.67;51.88;101058.53;5029645;27;98524;-71
2022/06/26 04:35:49;;;;;;;17.40;15.18;;;;;;;28.67;51.24;101060.38;5030201;27;96783;-71
2022/06/26 04:38:21;;;;;;;15.98;14.38;;;;;;;28.59;51.71;101065.78;5023311;27;98131;-71
2022/06/26 04:40:47;;;;;;;18.13;16.17;;;;;;;28.51;52.20;101061.16;5030966;27;102105;-71
2022/06/26 04:43:14;;;;;;;16.30;14.60;;;;;;;28.82;51.85;101066.91;5025650;27;97365;-70
2022/06/26 04:45:42;;;;;;;15.77;14.18;;;;;;;28.78;51.04;101065.53;5025363;27;96879;-70
2022/06/26 04:48:08;;;;;;;15.52;14.02;;;;;;;28.86;51.10;101074.59;5027438;27;98935;-70
2022/06/26 04:50:35;;;;;;;15.57;13.73;;;;;;;29.02;49.85;101075.66;5024531;27;98490;-70
2022/06/26 04:53:01;;;;;;;15.07;13.68;;;;;;;28.68;50.01;101072.97;5026253;27;96862;-70
2022/06/26 04:55:28;;;;;;;16.10;14.45;;;;;;;28.80;50.36;101074.41;5027903;28;96886;-70
2022/06/26 04:57:54;;;;;;;15.55;13.40;;;;;;;28.38;51.16;101075.19;5029229;27;100260;-71
2022/06/26 05:00:21;;;;;;;16.33;14.65;;;;;;;28.42;51.34;101076.56;5028422;27;99120;-71
2022/06/26 05:02:48;;;;;;;16.05;14.35;;;;;;;28.37;51.76;101069.91;5027324;28;96898;-70
2022/06/26 05:05:15;;;;;;;15.68;14.00;;;;;;;28.39;52.42;101076.03;5029366;27;96977;-71
2022/06/26 05:07:41;;;;;;;17.35;13.93;;;;;;;28.46;53.56;101077.97;5026510;27;99056;-70
2022/06/26 05:10:09;;;;;;;15.27;13.60;;;;;;;28.39;54.14;101081.47;5027427;27;99203;-70
2022/06/26 05:12:35;;;;;;;16.73;14.95;;;;;;;28.48;53.93;101075.09;5020777;28;97237;-70
2022/06/26 05:15:01;;;;;;;17.23;14.85;;;;;;;28.37;54.01;101081.63;5025712;27;96842;-71
2022/06/26 05:17:28;;;;;;;15.65;13.93;;;;;;;28.69;52.61;101082.81;5029361;27;98973;-70
2022/06/26 05:19:56;;;;;;;17.60;15.75;;;;;;;28.45;53.05;101080.81;5026461;27;98349;-70
2022/06/26 05:22:22;;;;;;;16.38;14.88;;;;;;;28.73;52.59;101084.19;5029542;27;96867;-71
2022/06/26 05:24:49;;;;;;;16.63;14.30;;;;;;;28.82;51.50;101077.78;5026228;27;96788;-71
2022/06/26 05:27:15;;;;;;;15.65;13.65;;;;;;;28.88;51.69;101083.41;5027345;27;101479;-72
2022/06/26 05:29:41;;;;;;;16.10;13.63;;;;;;;28.88;50.48;101077.97;5025991;27;98884;-70
2022/06/26 05:32:08;;;;;;;14.82;13.25;;;;;;;28.57;51.09;101084.09;5022699;28;96781;-71
2022/06/26 05:34:35;;;;;;;16.30;13.15;;;;;;;28.79;50.81;101092.59;5029029;27;96873;-70
2022/06/26 05:37:03;;;;;;;13.82;12.52;;;;;;;28.56;52.00;101085.97;5023546;27;100094;-71
2022/06/26 05:39:29;;;;;;;15.88;12.95;;;;;;;28.78;50.92;101095.47;5027281;27;98859;-71
2022/06/26 05:41:56;;;;;;;13.63;12.32;;;;;;;29.08;50.73;101094.88;5031606;27;96709;-71
2022/06/26 05:44:22;;;;;;;14.85;12.65;;;;;;;29.12;50.41;101096.25;5030858;27;96891;-71
2022/06/26 05:46:48;;;;;;;13.18;11.77;;;;;;;29.32;50.04;101096.81;5032530;27;100807;-71
2022/06/26 05:49:15;;;;;;;12.55;11.35;;;;;;;29.38;49.79;101095.34;5028477;28;98145;-71
2022/06/26 05:51:41;;;;;;;13.32;11.02;;;;;;;29.37;48.79;101088.19;5031846;27;97184;-70
2022/06/26 05:54:09;;;;;;;13.80;11.63;;;;;;;29.63;48.38;101091.59;5027815;28;96798;-70
2022/06/26 05:56:35;;;;;;;14.15;11.43;;;;;;;29.84;48.16;101099.28;5025807;27;99273;-71
2022/06/26 05:59:02;;;;;;;12.57;11.20;;;;;;;29.87;47.83;101093.47;5030098;27;102779;-70
2022/06/26 06:01:28;;;;;;;15.77;10.90;;;;;;;30.06;47.59;101095.91;5032281;28;96856;-71
2022/06/26 06:03:55;;;;;;;11.55;10.35;;;;;;;30.30;46.75;101097.72;5033219;27;97175;-71
2022/06/26 06:06:21;;;;;;;12.35;10.82;;;;;;;30.55;45.98;101103.97;5031032;27;98836;-71
2022/06/26 06:08:48;;;;;;;10.80;9.13;;;;;;;30.61;44.50;101109.59;5025082;27;97455;-70
2022/06/26 06:11:16;;;;;;;9.85;8.98;;;;;;;30.63;44.81;101104.81;5026653;28;97328;-71
2022/06/26 06:13:42;;;;;;;12.30;11.02;;;;;;;30.91;45.06;101107.94;5028961;27;97418;-71
2022/06/26 06:16:09;;;;;;;10.93;10.00;;;;;;;30.43;45.26;101108.94;5031953;27;99205;-70
2022/06/26 06:18:35;;;;;;;10.77;9.43;;;;;;;30.88;44.36;101111.88;5024311;27;97712;-70
2022/06/26 06:21:02;;;;;;;9.73;8.77;;;;;;;31.50;42.86;101113.78;5032662;27;96787;-70
2022/06/26 06:23:28;;;;;;;8.73;7.93;;;;;;;31.41;42.00;101103.94;5029008;27;97303;-70
2022/06/26 06:25:55;;;;;;;10.73;8.57;;;;;;;31.54;42.15;101109.66;5032004;27;98736;-70
2022/06/26 06:28:22;;;;;;;7.88;7.18;;;;;;;31.28;41.67;101105.38;5026697;27;99016;-71
2022/06/26 06:30:52;;;;;;;7.80;5.82;;;;;;;31.18;40.00;101110.19;5032218;27;97157;-71
2022/06/26 06:33:19;;;;;;;6.60;6.00;;;;;;;31.11;41.53;101109.25;5028982;28;97401;-71
2022/06/26 06:35:45;;;;;;;6.22;5.45;;;;;;;31.34;40.55;101112.00;5028560;27;97569;-70
2022/06/26 06:38:12;;;;;;;5.78;5.13;;;;;;;31.36;39.63;101106.38;5027775;27;101913;-70
2022/06/26 06:40:39;;;;;;;5.80;5.30;;;;;;;31.25;40.83;101113.91;5027656;28;97610;-71
2022/06/26 06:43:10;;;;;;;5.75;5.10;;;;;;;31.56;39.91;101118.50;5030609;27;97409;-71
2022/06/26 06:45:38;;;;;;;5.03;4.63;;;;;;;31.36;38.87;101122.75;5027688;27;100027;-71
2022/06/26 06:48:05;;;;;;;4.50;4.10;;;;;;;31.03;40.07;101128.34;5030185;27;98999;-72
2022/06/26 06:50:31;;;;;;;8.40;4.82;;;;;;;31.21;39.86;101117.19;5028161;27;97154;-71
2022/06/26 06:52:58;;;;;;;5.32;4.82;;;;;;;31.33;39.45;101117.63;5027867;27;97232;-71
2022/06/26 06:55:25;;;;;;;5.10;4.63;;;;;;;31.65;39.13;101122.91;5028071;27;98863;-71
2022/06/26 06:57:51;;;;;;;4.72;4.20;;;;;;;32.02;38.62;101111.16;5028635;27;99072;-70
2022/06/26 07:00:18;;;;;;;6.18;4.70;;;;;;;31.60;39.83;101114.41;5033033;27;97468;-71
2022/06/26 07:02:45;;;;;;;7.53;4.80;;;;;;;32.03;38.26;101110.94;5030344;27;97456;-72
2022/06/26 07:05:12;;;;;;;4.97;4.57;;;;;;;32.26;37.95;101110.09;5029304;27;98274;-73
2022/06/26 07:07:38;;;;;;;5.10;4.60;;;;;;;32.24;37.65;101112.16;5023567;27;98846;-70
2022/06/26 07:10:08;;;;;;;5.80;4.88;;;;;;;32.40;37.58;101117.47;5031372;28;96757;-70
2022/06/26 07:12:34;;;;;;;4.95;4.55;;;;;;;32.19;37.68;101112.72;5021349;28;97809;-70
2022/06/26 07:15:01;;;;;;;5.80;5.18;;;;;;;31.97;38.36;101116.31;5017533;27;101450;-70
2022/06/26 07:17:27;;;;;;;5.68;4.97;;;;;;;31.61;39.10;101114.22;5017486;28;101641;-71
2022/06/26 07:19:55;;;;;;;5.15;4.75;;;;;;;32.05;38.45;101114.38;5019907;27;98569;-70
2022/06/26 07:22:21;;;;;;;5.53;4.95;;;;;;;32.13;38.21;101109.84;5025567;28;97777;-71
2022/06/26 07:24:48;;;;;;;7.10;5.65;;;;;;;32.12;38.43;101106.28;5023968;27;97612;-71
2022/06/26 07:27:16;;;;;;;9.00;5.55;;;;;;;32.06;39.12;101104.28;5024699;27;98949;-71
2022/06/26 07:29:42;;;;;;;7.35;5.75;;;;;;;31.78;39.00;101105.88;5026568;27;96804;-72
2022/06/26 07:32:09;;;;;;;7.97;6.30;;;;;;;32.05;38.62;101114.38;5021689;27;98101;-71
2022/06/26 07:34:36;;;;;;;6.47;5.88;;;;;;;32.23;38.03;101105.03;5021857;27;97728;-71
2022/06/26 07:37:04;;;;;;;10.65;7.38;;;;;;;32.30;38.16;101101.31;5019488;28;100534;-72
2022/06/26 07:39:30;;;;;;;7.70;6.90;;;;;;;32.74;37.38;101114.22;5024157;27;98784;-70
2022/06/26 07:41:57;;;;;;;7.50;6.80;;;;;;;33.07;36.84;101112.75;5023919;27;97946;-70
2022/06/26 07:44:23;;;;;;;7.47;6.60;;;;;;;33.13;36.84;101102.91;5019171;28;99041;-70
2022/06/26 07:46:50;;;;;;;6.57;6.03;;;;;;;33.24;36.13;101105.19;5023434;27;99045;-70
2022/06/26 07:49:16;;;;;;;6.70;6.03;;;;;;;33.23;35.57;101104.31;5030667;27;96719;-71
2022/06/26 07:51:43;;;;;;;6.53;5.85;;;;;;;33.47;35.72;101097.66;5026175;27;97540;-72
2022/06/26 07:54:11;;;;;;;6.90;5.35;;;;;;;33.28;35.35;101097.44;5029539;27;98011;-71
2022/06/26 07:56:37;;;;;;;5.35;4.95;;;;;;;33.28;34.93;101098.25;5024403;28;101866;-72
2022/06/26 07:59:04;;;;;;;5.60;5.10;;;;;;;33.52;34.90;101094.31;5030301;27;97352;-70
2022/06/26 08:01:31;;;;;;;6.00;4.90;;;;;;;33.65;34.31;101099.91;5029008;27;97876;-71
2022/06/26 08:03:58;;;;;;;5.30;4.80;;;;;;;33.75;33.61;101088.66;5021569;27;101985;-71
2022/06/26 08:06:24;;;;;;;8.95;4.28;;;;;;;33.70;33.04;101094.69;5023012;27;99274;-71
2022/06/26 08:08:51;;;;;;;4.25;3.83;;;;;;;33.60;32.77;101092.31;5019986;27;96838;-71
2022/06/26 08:11:19;;;;;;;4.15;3.85;;;;;;;33.65;33.39;101094.44;5023609;27;97546;-71
2022/06/26 08:13:46;;;;;;;4.72;3.97;;;;;;;34.04;32.77;101093.97;5029146;27;101186;-70
2022/06/26 08:16:13;;;;;;;5.03;4.55;;;;;;;34.44;31.71;101091.53;5021695;27;101122;-72
2022/06/26 08:18:39;;;;;;;5.32;3.97;;;;;;;34.71;31.70;101093.41;5025202;27;97174;-70
2022/06/26 08:23:51;;;;;;;6.25;3.88;;;;;;;34.05;31.28;101095.66;5024072;27;97455;-71
2022/06/26 08:26:18;;;;;;;3.75;3.50;;;;;;;34.53;31.23;101096.63;5026704;27;97539;-71
2022/06/26 08:28:45;;;;;;;3.40;3.20;;;;;;;34.81;30.28;101093.03;5023548;27;97753;-72
2022/06/26 08:31:12;;;;;;;3.92;3.55;;;;;;;34.98;30.54;101095.22;5025735;28;97146;-71
2022/06/26 08:33:38;;;;;;;7.57;3.45;;;;;;;34.76;30.12;101097.25;5019324;28;102032;-70
2022/06/26 08:36:05;;;;;;;3.00;2.70;;;;;;;34.61;29.40;101099.22;5023279;27;99159;-71
2022/06/26 08:38:32;;;;;;;3.30;2.75;;;;;;;34.53;29.37;101090.34;5027884;27;96935;-71
2022/06/26 08:40:59;;;;;;;4.03;3.20;;;;;;;34.38;29.20;101093.19;5027193;28;96860;-70
2022/06/26 08:43:28;;;;;;;3.20;2.90;;;;;;;34.33;29.57;101095.69;5023673;27;99939;-71
2022/06/26 08:45:56;;;;;;;3.22;3.03;;;;;;;34.80;29.41;101100.41;5025893;27;98845;-72
2022/06/26 08:48:26;;;;;;;3.13;2.90;;;;;;;34.86;28.76;101093.25;5024157;27;99048;-72
2022/06/26 08:50:53;;;;;;;4.95;3.20;;;;;;;34.69;30.03;101096.31;5023473;27;96993;-72
2022/06/26 08:53:20;;;;;;;4.38;3.70;;;;;;;34.32;30.39;101104.97;5022183;27;101114;-71
2022/06/26 08:55:48;;;;;;;4.07;3.70;;;;;;;34.49;29.70;101100.00;5017205;27;99576;-72
2022/06/26 08:58:14;;;;;;;3.75;3.45;;;;;;;35.16;29.17;101113.88;5027040;27;97377;-73
2022/06/26 09:00:46;;;;;;;3.70;3.40;;;;;;;34.77;29.83;101109.91;5027436;27;97231;-71
2022/06/26 09:03:13;;;;;;;3.90;3.60;;;;;;;34.72;30.04;101108.84;5024572;27;100424;-70
2022/06/26 09:05:40;;;;;;;4.30;3.90;;;;;;;34.74;30.55;101101.22;5024039;27;98931;-70
2022/06/26 09:08:16;;;;;;;4.07;3.65;;;;;;;34.52;30.81;101105.09;5024358;27;97246;-73
2022/06/26 09:10:44;;;;;;;3.70;3.40;;;;;;;34.66;30.57;101099.47;5019022;27;97345;-71
2022/06/26 09:13:10;;;;;;;4.55;4.10;;;;;;;34.60;30.48;101096.69;5022151;28;101361;-70
2022/06/26 09:15:39;;;;;;;8.00;3.80;;;;;;;34.63;30.56;101097.13;5023962;27;98690;-71
2022/06/26 09:18:10;;;;;;;6.22;3.97;;;;;;;34.68;30.56;101099.25;5023978;27;96875;-70
2022/06/26 09:20:49;;;;;;;4.80;4.40;;;;;;;34.36;31.03;101098.88;5027180;27;97026;-71
2022/06/26 09:23:16;;;;;;;5.65;3.88;;;;;;;34.45;30.41;101098.72;5023244;27;98844;-73
2022/06/26 09:25:44;;;;;;;4.75;4.32;;;;;;;34.55;30.03;101093.69;5030819;27;99241;-71
2022/06/26 09:28:13;;;;;;;4.82;4.18;;;;;;;34.88;30.03;101102.97;5028232;27;97230;-71
2022/06/26 09:30:50;;;;;;;6.05;5.07;;;;;;;34.59;31.02;101093.09;5029675;27;97380;-72
2022/06/26 09:33:19;;;;;;;4.85;4.40;;;;;;;34.65;30.24;101097.78;5026672;27;98944;-73
2022/06/26 09:35:46;;;;;;;5.03;4.53;;;;;;;34.88;30.26;101102.97;5025384;27;100057;-70
2022/06/26 09:38:17;;;;;;;5.32;4.40;;;;;;;35.02;29.72;101107.47;5024011;27;98240;-71
2022/06/26 09:40:49;;;;;;;4.68;4.03;;;;;;;34.96;30.05;101100.06;5024060;27;97665;-71
2022/06/26 09:43:25;;;;;;;8.13;3.97;;;;;;;34.63;30.31;101101.78;5025199;27;99311;-72
2022/06/26 09:45:54;;;;;;;4.55;4.15;;;;;;;34.61;30.63;101096.47;5026185;27;100720;-72
2022/06/26 09:48:24;;;;;;;5.10;4.70;;;;;;;34.53;30.40;101101.31;5020887;28;99615;-72
2022/06/26 09:50:51;;;;;;;5.13;4.72;;;;;;;35.08;30.66;101112.16;5026061;27;97186;-71
2022/06/26 09:53:22;;;;;;;5.10;4.65;;;;;;;34.97;29.82;101104.50;5026427;27;100732;-71
2022/06/26 09:55:49;;;;;;;4.63;4.15;;;;;;;34.90;29.71;101109.13;5030189;27;100344;-70
2022/06/26 09:58:17;;;;;;;6.97;4.32;;;;;;;34.81;30.07;101104.84;5022998;28;97263;-71
2022/06/26 10:06:25;;;;;;;5.22;4.55;;;;;;;34.75;30.22;101105.66;5032302;27;96882;-71
2022/06/26 10:06:26;;;;;;;4.10;3.80;;;;;;;34.68;30.58;101110.25;5028158;28;97101;-70
2022/06/26 10:08:54;;;;;;;4.78;4.38;;;;;;;34.59;30.46;101100.50;5029077;27;96782;-70
2022/06/26 10:11:23;;;;;;;5.90;4.25;;;;;;;34.70;30.33;101100.75;5030284;27;99224;-72
2022/06/26 10:13:51;;;;;;;4.43;4.07;;;;;;;34.69;30.84;101104.56;5030635;27;100932;-70
2022/06/26 10:16:48;;;;;;;4.90;4.30;;;;;;;34.74;30.28;101103.97;5024389;27;101577;-71
2022/06/26 10:19:24;;;;;;;6.40;4.15;;;;;;;34.72;30.74;101106.91;5025113;28;97458;-71
2022/06/26 10:21:51;;;;;;;5.72;4.63;;;;;;;35.10;30.25;101114.69;5031177;27;96732;-70
2022/06/26 10:24:18;;;;;;;4.53;4.13;;;;;;;34.68;31.05;101110.25;5027676;27;99907;-71
2022/06/26 10:26:55;;;;;;;5.18;4.30;;;;;;;34.92;29.70;101112.50;5024483;27;99186;-72
2022/06/26 10:29:32;;;;;;;4.70;4.30;;;;;;;34.87;30.21;101108.66;5025198;27;97725;-70
2022/06/26 10:31:59;;;;;;;5.63;4.15;;;;;;;34.85;30.31;101106.16;5024771;27;97288;-71
2022/06/26 10:34:27;;;;;;;4.53;4.13;;;;;;;35.05;29.82;101115.28;5029705;27;101107;-71
2022/06/26 10:37:02;;;;;;;4.07;3.78;;;;;;;34.72;29.63;101111.59;5031310;27;100835;-70
2022/06/26 10:39:49;;;;;;;4.28;3.97;;;;;;;34.50;30.62;101108.03;5028728;27;97173;-70
2022/06/26 10:45:06;;;;;;;4.15;3.47;;;;;;;34.12;30.84;101102.06;5028827;28;97264;-72
2022/06/26 10:47:43;;;;;;;3.90;3.47;;;;;;;34.68;29.91;101104.75;5025934;27;97664;-71
2022/06/26 10:50:25;;;;;;;5.47;3.38;;;;;;;35.03;30.21;101109.19;5024683;27;97481;-72
2022/06/26 10:52:52;;;;;;;3.70;3.40;;;;;;;35.29;29.21;101099.38;5023586;27;96803;-72
2022/06/26 10:55:18;;;;;;;3.92;3.28;;;;;;;35.35;28.92;101095.78;5025284;27;97812;-71
2022/06/26 10:57:51;;;;;;;3.90;3.60;;;;;;;35.62;28.44;101103.03;5022177;27;98871;-72
2022/06/26 11:00:18;;;;;;;3.70;3.40;;;;;;;35.84;28.22;101089.97;5024095;27;97184;-72
2022/06/26 11:02:46;;;;;;;5.15;3.35;;;;;;;35.99;28.69;101086.97;5027647;27;97316;-73
2022/06/26 11:05:13;;;;;;;3.85;3.13;;;;;;;35.82;28.45;101092.06;5029099;27;99427;-72
2022/06/26 11:07:46;;;;;;;4.80;3.17;;;;;;;35.50;28.68;101090.97;5023151;27;97494;-71
2022/06/26 11:10:15;;;;;;;4.82;3.20;;;;;;;35.55;28.19;101082.94;5025220;27;98601;-71
2022/06/26 11:12:43;;;;;;;3.47;3.20;;;;;;;35.44;28.91;101089.06;5024524;28;98209;-70
2022/06/26 11:15:31;;;;;;;3.38;3.17;;;;;;;35.48;28.29;101088.41;5025484;27;99189;-71
2022/06/26 11:18:07;;;;;;;3.95;3.60;;;;;;;35.27;29.22;101077.59;5026812;28;100398;-71
2022/06/26 11:20:47;;;;;;;3.90;3.40;;;;;;;35.36;28.73;101078.25;5030912;27;97542;-71
2022/06/26 11:23:21;;;;;;;3.42;3.10;;;;;;;35.35;28.44;101085.66;5023444;27;96758;-71
2022/06/26 11:25:49;;;;;;;3.20;2.97;;;;;;;35.17;29.03;101085.38;5026895;28;99462;-70
2022/06/26 11:28:17;;;;;;;4.57;3.42;;;;;;;35.22;29.01;101082.88;5022538;27;99857;-71